sensor_id;sensor_type;location;lat;lon;timestamp;pressure;altitude;pressure_sealevel;temperature;humidity
36254;BME280;22291;52.250;21.228;2022-10-16T00:01:22;100400.53;;;14.09;74.35
36254;BME280;22291;52.250;21.228;2022-10-16T00:03:50;100407.00;;;14.10;74.27
36254;BME280;22291;52.250;21.228;2022-10-16T00:06:19;100399.17;;;14.09;74.27
36254;BME280;22291;52.250;21.228;2022-10-16T00:08:47;100399.42;;;14.10;74.25
36254;BME280;22291;52.250;21.228;2022-10-16T00:11:26;100401.10;;;14.08;74.16
36254;BME280;22291;52.250;21.228;2022-10-16T00:13:57;100406.76;;;14.09;74.20
36254;BME280;22291;52.250;21.228;2022-10-16T00:16:26;100412.77;;;14.09;74.17
36254;BME280;22291;52.250;21.228;2022-10-16T00:18:54;100416.60;;;14.08;74.16
36254;BME280;22291;52.250;21.228;2022-10-16T00:21:22;100413.67;;;14.07;74.25
36254;BME280;22291;52.250;21.228;2022-10-16T00:23:59;100409.91;;;14.05;74.09
36254;BME280;22291;52.250;21.228;2022-10-16T00:26:27;100404.23;;;14.04;74.23
36254;BME280;22291;52.250;21.228;2022-10-16T00:28:54;100405.38;;;14.03;74.26
36254;BME280;22291;52.250;21.228;2022-10-16T00:31:21;100399.69;;;14.02;74.16
36254;BME280;22291;52.250;21.228;2022-10-16T00:33:49;100407.60;;;14.01;74.27
36254;BME280;22291;52.250;21.228;2022-10-16T00:36:18;100407.14;;;13.99;74.29
36254;BME280;22291;52.250;21.228;2022-10-16T00:38:46;100412.01;;;13.99;74.28
36254;BME280;22291;52.250;21.228;2022-10-16T00:41:15;100409.64;;;13.98;74.22
36254;BME280;22291;52.250;21.228;2022-10-16T00:46:27;100404.75;;;13.97;74.36
36254;BME280;22291;52.250;21.228;2022-10-16T00:49:10;100407.79;;;13.96;74.38
36254;BME280;22291;52.250;21.228;2022-10-16T00:54:21;100415.92;;;13.90;74.56
36254;BME280;22291;52.250;21.228;2022-10-16T00:56:46;100426.80;;;13.90;74.72
36254;BME280;22291;52.250;21.228;2022-10-16T01:01:50;100426.41;;;13.85;74.91
36254;BME280;22291;52.250;21.228;2022-10-16T01:04:18;100426.98;;;13.85;75.01
36254;BME280;22291;52.250;21.228;2022-10-16T01:09:47;100424.02;;;13.83;75.25
36254;BME280;22291;52.250;21.228;2022-10-16T01:12:20;100428.67;;;13.83;75.25
36254;BME280;22291;52.250;21.228;2022-10-16T01:14:59;100440.44;;;13.81;75.41
36254;BME280;22291;52.250;21.228;2022-10-16T01:17:34;100443.95;;;13.81;75.60
36254;BME280;22291;52.250;21.228;2022-10-16T01:20:22;100463.30;;;13.80;75.77
36254;BME280;22291;52.250;21.228;2022-10-16T01:23:15;100463.95;;;13.77;75.97
36254;BME280;22291;52.250;21.228;2022-10-16T01:31:57;100439.80;;;13.60;76.60
36254;BME280;22291;52.250;21.228;2022-10-16T01:34:37;100430.47;;;13.55;76.97
36254;BME280;22291;52.250;21.228;2022-10-16T01:37:11;100425.76;;;13.50;77.10
36254;BME280;22291;52.250;21.228;2022-10-16T01:39:40;100446.78;;;13.47;77.40
36254;BME280;22291;52.250;21.228;2022-10-16T01:42:15;100451.75;;;13.44;77.67
36254;BME280;22291;52.250;21.228;2022-10-16T01:44:43;100453.75;;;13.41;78.01
36254;BME280;22291;52.250;21.228;2022-10-16T01:47:13;100450.34;;;13.38;78.30
36254;BME280;22291;52.250;21.228;2022-10-16T01:49:41;100446.91;;;13.35;78.16
36254;BME280;22291;52.250;21.228;2022-10-16T01:52:18;100453.45;;;13.34;78.61
36254;BME280;22291;52.250;21.228;2022-10-16T01:54:47;100455.42;;;13.31;78.69
36254;BME280;22291;52.250;21.228;2022-10-16T01:57:16;100450.09;;;13.29;79.12
36254;BME280;22291;52.250;21.228;2022-10-16T01:59:47;100448.80;;;13.26;79.12
36254;BME280;22291;52.250;21.228;2022-10-16T02:02:17;100450.83;;;13.23;79.14
36254;BME280;22291;52.250;21.228;2022-10-16T02:04:46;100450.11;;;13.20;79.07
36254;BME280;22291;52.250;21.228;2022-10-16T02:07:15;100442.03;;;13.17;79.67
36254;BME280;22291;52.250;21.228;2022-10-16T02:09:42;100440.78;;;13.15;79.42
36254;BME280;22291;52.250;21.228;2022-10-16T02:12:28;100438.70;;;13.12;79.71
36254;BME280;22291;52.250;21.228;2022-10-16T02:14:56;100443.09;;;13.10;79.83
36254;BME280;22291;52.250;21.228;2022-10-16T02:17:24;100444.30;;;13.06;79.97
36254;BME280;22291;52.250;21.228;2022-10-16T02:19:53;100442.69;;;13.05;79.96
36254;BME280;22291;52.250;21.228;2022-10-16T02:22:32;100446.77;;;13.05;80.17
36254;BME280;22291;52.250;21.228;2022-10-16T02:25:08;100451.73;;;13.03;80.29
36254;BME280;22291;52.250;21.228;2022-10-16T02:27:57;100446.30;;;13.03;80.42
36254;BME280;22291;52.250;21.228;2022-10-16T02:32:59;100439.35;;;13.00;80.53
36254;BME280;22291;52.250;21.228;2022-10-16T02:35:29;100443.74;;;12.98;80.67
36254;BME280;22291;52.250;21.228;2022-10-16T02:37:57;100443.02;;;12.95;80.60
36254;BME280;22291;52.250;21.228;2022-10-16T02:40:24;100439.77;;;12.96;80.74
36254;BME280;22291;52.250;21.228;2022-10-16T02:42:53;100440.87;;;12.95;80.72
36254;BME280;22291;52.250;21.228;2022-10-16T02:45:20;100446.63;;;12.93;80.85
36254;BME280;22291;52.250;21.228;2022-10-16T02:47:47;100451.02;;;12.92;80.92
36254;BME280;22291;52.250;21.228;2022-10-16T02:50:14;100447.26;;;12.90;80.99
36254;BME280;22291;52.250;21.228;2022-10-16T02:52:40;100445.69;;;12.89;80.94
36254;BME280;22291;52.250;21.228;2022-10-16T02:55:07;100444.86;;;12.88;81.08
36254;BME280;22291;52.250;21.228;2022-10-16T02:57:33;100443.50;;;12.88;81.05
36254;BME280;22291;52.250;21.228;2022-10-16T03:00:08;100446.54;;;12.87;81.17
36254;BME280;22291;52.250;21.228;2022-10-16T03:02:32;100445.28;;;12.84;81.14
36254;BME280;22291;52.250;21.228;2022-10-16T03:04:58;100439.38;;;12.82;81.55
36254;BME280;22291;52.250;21.228;2022-10-16T03:07:24;100446.48;;;12.81;81.67
36254;BME280;22291;52.250;21.228;2022-10-16T03:09:51;100456.52;;;12.80;81.67
36254;BME280;22291;52.250;21.228;2022-10-16T03:12:17;100458.22;;;12.79;81.55
36254;BME280;22291;52.250;21.228;2022-10-16T03:14:43;100459.58;;;12.79;81.56
36254;BME280;22291;52.250;21.228;2022-10-16T03:17:09;100463.66;;;12.79;81.85
36254;BME280;22291;52.250;21.228;2022-10-16T03:19:35;100467.72;;;12.79;81.77
36254;BME280;22291;52.250;21.228;2022-10-16T03:22:02;100474.25;;;12.78;81.70
36254;BME280;22291;52.250;21.228;2022-10-16T03:24:28;100476.97;;;12.78;81.82
36254;BME280;22291;52.250;21.228;2022-10-16T03:26:54;100473.94;;;12.79;81.76
36254;BME280;22291;52.250;21.228;2022-10-16T03:29:20;100479.12;;;12.78;81.84
36254;BME280;22291;52.250;21.228;2022-10-16T03:31:46;100480.73;;;12.79;81.75
36254;BME280;22291;52.250;21.228;2022-10-16T03:34:14;100486.06;;;12.82;81.73
36254;BME280;22291;52.250;21.228;2022-10-16T03:36:40;100489.03;;;12.83;81.77
36254;BME280;22291;52.250;21.228;2022-10-16T03:39:06;100490.38;;;12.83;81.82
36254;BME280;22291;52.250;21.228;2022-10-16T03:41:32;100495.02;;;12.82;81.66
36254;BME280;22291;52.250;21.228;2022-10-16T03:43:59;100498.53;;;12.83;81.65
36254;BME280;22291;52.250;21.228;2022-10-16T03:46:25;100491.73;;;12.83;81.57
36254;BME280;22291;52.250;21.228;2022-10-16T03:48:51;100494.92;;;12.85;81.75
36254;BME280;22291;52.250;21.228;2022-10-16T03:51:17;100490.63;;;12.84;81.50
36254;BME280;22291;52.250;21.228;2022-10-16T03:53:43;100490.29;;;12.85;81.47
36254;BME280;22291;52.250;21.228;2022-10-16T03:56:10;100487.58;;;12.85;81.52
36254;BME280;22291;52.250;21.228;2022-10-16T03:58:36;100492.47;;;12.86;81.50
36254;BME280;22291;52.250;21.228;2022-10-16T04:01:02;100495.97;;;12.86;81.39
36254;BME280;22291;52.250;21.228;2022-10-16T04:03:29;100499.79;;;12.85;81.30
36254;BME280;22291;52.250;21.228;2022-10-16T04:05:55;100500.36;;;12.85;81.33
36254;BME280;22291;52.250;21.228;2022-10-16T04:08:22;100492.78;;;12.84;81.22
36254;BME280;22291;52.250;21.228;2022-10-16T04:10:49;100497.64;;;12.85;81.29
36254;BME280;22291;52.250;21.228;2022-10-16T04:13:15;100497.42;;;12.84;81.26
36254;BME280;22291;52.250;21.228;2022-10-16T04:15:42;100503.07;;;12.85;81.26
36254;BME280;22291;52.250;21.228;2022-10-16T04:18:08;100504.68;;;12.86;81.16
36254;BME280;22291;52.250;21.228;2022-10-16T04:20:34;100506.27;;;12.87;81.17
36254;BME280;22291;52.250;21.228;2022-10-16T04:23:00;100489.75;;;12.86;81.07
36254;BME280;22291;52.250;21.228;2022-10-16T04:25:27;100494.61;;;12.86;81.05
36254;BME280;22291;52.250;21.228;2022-10-16T04:27:54;100495.97;;;12.86;81.03
36254;BME280;22291;52.250;21.228;2022-10-16T04:30:21;100492.47;;;12.86;81.02
36254;BME280;22291;52.250;21.228;2022-10-16T04:32:50;100496.53;;;12.86;80.87
36254;BME280;22291;52.250;21.228;2022-10-16T04:35:18;100488.23;;;12.82;80.90
36254;BME280;22291;52.250;21.228;2022-10-16T04:37:46;100497.73;;;12.82;80.97
36254;BME280;22291;52.250;21.228;2022-10-16T04:40:13;100499.73;;;12.79;80.84
36254;BME280;22291;52.250;21.228;2022-10-16T04:42:40;100503.55;;;12.78;80.68
36254;BME280;22291;52.250;21.228;2022-10-16T04:45:07;100511.53;;;12.75;80.59
36254;BME280;22291;52.250;21.228;2022-10-16T04:47:34;100509.70;;;12.73;80.67
36254;BME280;22291;52.250;21.228;2022-10-16T04:50:00;100502.50;;;12.68;80.62
36254;BME280;22291;52.250;21.228;2022-10-16T04:52:28;100504.17;;;12.66;80.68
36254;BME280;22291;52.250;21.228;2022-10-16T04:54:54;100508.91;;;12.63;80.70
36254;BME280;22291;52.250;21.228;2022-10-16T04:57:22;100514.39;;;12.61;80.70
36254;BME280;22291;52.250;21.228;2022-10-16T04:59:48;100516.69;;;12.56;80.67
36254;BME280;22291;52.250;21.228;2022-10-16T05:02:14;100513.75;;;12.55;80.93
36254;BME280;22291;52.250;21.228;2022-10-16T05:04:40;100522.52;;;12.52;80.98
36254;BME280;22291;52.250;21.228;2022-10-16T05:07:06;100522.04;;;12.50;81.08
36254;BME280;22291;52.250;21.228;2022-10-16T05:09:32;100526.65;;;12.49;81.17
36254;BME280;22291;52.250;21.228;2022-10-16T05:11:58;100523.30;;;12.44;81.28
36254;BME280;22291;52.250;21.228;2022-10-16T05:14:24;100525.75;;;12.43;81.34
36254;BME280;22291;52.250;21.228;2022-10-16T05:16:51;100523.04;;;12.43;81.46
36254;BME280;22291;52.250;21.228;2022-10-16T05:19:17;100533.67;;;12.42;81.54
36254;BME280;22291;52.250;21.228;2022-10-16T05:21:44;100522.56;;;12.41;81.68
36254;BME280;22291;52.250;21.228;2022-10-16T05:24:10;100531.43;;;12.44;81.70
36254;BME280;22291;52.250;21.228;2022-10-16T05:26:36;100534.14;;;12.44;81.73
36254;BME280;22291;52.250;21.228;2022-10-16T05:29:02;100535.50;;;12.44;81.83
36254;BME280;22291;52.250;21.228;2022-10-16T05:31:28;100539.26;;;12.45;81.92
36254;BME280;22291;52.250;21.228;2022-10-16T05:34:02;100545.16;;;12.47;81.85
36254;BME280;22291;52.250;21.228;2022-10-16T05:36:28;100552.98;;;12.49;81.95
36254;BME280;22291;52.250;21.228;2022-10-16T05:38:55;100555.39;;;12.50;82.03
36254;BME280;22291;52.250;21.228;2022-10-16T05:41:21;100565.05;;;12.54;82.02
36254;BME280;22291;52.250;21.228;2022-10-16T05:43:49;100563.63;;;12.57;82.05
36254;BME280;22291;52.250;21.228;2022-10-16T05:46:16;100568.91;;;12.62;82.02
36254;BME280;22291;52.250;21.228;2022-10-16T05:48:43;100566.91;;;12.65;82.02
36254;BME280;22291;52.250;21.228;2022-10-16T05:51:11;100557.91;;;12.67;81.95
36254;BME280;22291;52.250;21.228;2022-10-16T05:53:39;100558.80;;;12.74;81.82
36254;BME280;22291;52.250;21.228;2022-10-16T05:56:09;100558.80;;;12.74;81.82
36254;BME280;22291;52.250;21.228;2022-10-16T05:58:37;100560.16;;;12.74;81.59
36254;BME280;22291;52.250;21.228;2022-10-16T06:01:09;100552.02;;;12.74;81.58
36254;BME280;22291;52.250;21.228;2022-10-16T06:03:39;100556.63;;;12.73;81.39
36254;BME280;22291;52.250;21.228;2022-10-16T06:06:16;100554.95;;;12.75;81.37
36254;BME280;22291;52.250;21.228;2022-10-16T06:08:45;100565.34;;;12.73;81.30
36254;BME280;22291;52.250;21.228;2022-10-16T06:11:19;100576.76;;;12.72;81.33
36254;BME280;22291;52.250;21.228;2022-10-16T06:13:44;100575.15;;;12.71;81.31
36254;BME280;22291;52.250;21.228;2022-10-16T06:16:12;100579.22;;;12.71;81.40
36254;BME280;22291;52.250;21.228;2022-10-16T06:18:39;100585.44;;;12.71;81.33
36254;BME280;22291;52.250;21.228;2022-10-16T06:21:14;100592.16;;;12.74;81.39
36254;BME280;22291;52.250;21.228;2022-10-16T06:23:38;100588.00;;;12.77;81.49
36254;BME280;22291;52.250;21.228;2022-10-16T06:26:09;100588.67;;;12.82;81.54
36254;BME280;22291;52.250;21.228;2022-10-16T06:28:37;100582.69;;;12.92;81.51
36254;BME280;22291;52.250;21.228;2022-10-16T06:31:05;100592.13;;;13.03;81.70
36254;BME280;22291;52.250;21.228;2022-10-16T06:33:33;100595.42;;;13.20;81.87
36254;BME280;22291;52.250;21.228;2022-10-16T06:36:04;100589.69;;;13.39;81.53
36254;BME280;22291;52.250;21.228;2022-10-16T06:38:34;100589.77;;;13.54;81.67
36254;BME280;22291;52.250;21.228;2022-10-16T06:41:01;100587.42;;;13.76;81.20
36254;BME280;22291;52.250;21.228;2022-10-16T06:43:31;100597.50;;;13.99;80.51
36254;BME280;22291;52.250;21.228;2022-10-16T06:45:59;100597.94;;;14.18;80.20
36254;BME280;22291;52.250;21.228;2022-10-16T06:48:28;100611.03;;;14.40;78.89
36254;BME280;22291;52.250;21.228;2022-10-16T06:51:04;100606.03;;;14.60;79.02
36254;BME280;22291;52.250;21.228;2022-10-16T06:53:37;100607.47;;;14.87;79.30
36254;BME280;22291;52.250;21.228;2022-10-16T06:56:20;100610.59;;;15.19;78.37
36254;BME280;22291;52.250;21.228;2022-10-16T06:58:49;100607.84;;;15.34;76.81
36254;BME280;22291;52.250;21.228;2022-10-16T07:01:17;100606.73;;;15.35;75.71
36254;BME280;22291;52.250;21.228;2022-10-16T07:03:46;100606.77;;;15.47;75.46
36254;BME280;22291;52.250;21.228;2022-10-16T07:06:20;100615.48;;;15.67;75.35
36254;BME280;22291;52.250;21.228;2022-10-16T07:08:48;100617.40;;;15.82;73.98
36254;BME280;22291;52.250;21.228;2022-10-16T07:11:17;100619.45;;;15.91;73.02
36254;BME280;22291;52.250;21.228;2022-10-16T07:13:47;100622.33;;;16.01;72.99
36254;BME280;22291;52.250;21.228;2022-10-16T07:16:16;100623.25;;;16.17;73.11
36254;BME280;22291;52.250;21.228;2022-10-16T07:18:45;100623.86;;;16.35;72.79
36254;BME280;22291;52.250;21.228;2022-10-16T07:21:18;100642.30;;;16.51;71.88
36254;BME280;22291;52.250;21.228;2022-10-16T07:23:51;100649.33;;;16.39;71.10
36254;BME280;22291;52.250;21.228;2022-10-16T07:26:18;100652.38;;;16.25;70.54
36254;BME280;22291;52.250;21.228;2022-10-16T07:28:45;100653.39;;;16.15;70.76
36254;BME280;22291;52.250;21.228;2022-10-16T07:31:13;100653.38;;;16.02;70.52
36254;BME280;22291;52.250;21.228;2022-10-16T07:33:41;100654.13;;;15.91;70.86
36254;BME280;22291;52.250;21.228;2022-10-16T07:36:11;100658.64;;;15.80;70.95
36254;BME280;22291;52.250;21.228;2022-10-16T07:38:38;100653.00;;;15.71;71.08
36254;BME280;22291;52.250;21.228;2022-10-16T07:41:07;100641.52;;;15.65;71.22
36254;BME280;22291;52.250;21.228;2022-10-16T07:43:35;100647.72;;;15.59;71.48
36254;BME280;22291;52.250;21.228;2022-10-16T07:46:03;100633.30;;;15.59;71.48
36254;BME280;22291;52.250;21.228;2022-10-16T07:48:32;100634.07;;;15.53;71.30
36254;BME280;22291;52.250;21.228;2022-10-16T07:51:04;100635.86;;;15.49;71.77
36254;BME280;22291;52.250;21.228;2022-10-16T07:53:32;100629.16;;;15.53;72.14
36254;BME280;22291;52.250;21.228;2022-10-16T07:56:04;100631.59;;;15.60;72.12
36254;BME280;22291;52.250;21.228;2022-10-16T07:58:34;100631.63;;;15.66;72.20
36254;BME280;22291;52.250;21.228;2022-10-16T08:01:07;100637.73;;;15.84;72.15
36254;BME280;22291;52.250;21.228;2022-10-16T08:03:36;100619.17;;;16.11;73.10
36254;BME280;22291;52.250;21.228;2022-10-16T08:06:04;100611.81;;;16.67;73.65
36254;BME280;22291;52.250;21.228;2022-10-16T08:08:31;100611.53;;;17.22;72.64
36254;BME280;22291;52.250;21.228;2022-10-16T08:10:59;100613.07;;;17.63;71.65
36254;BME280;22291;52.250;21.228;2022-10-16T08:13:25;100613.52;;;17.94;70.32
36254;BME280;22291;52.250;21.228;2022-10-16T08:15:53;100612.74;;;18.25;69.75
36254;BME280;22291;52.250;21.228;2022-10-16T08:18:20;100615.04;;;18.55;67.63
36254;BME280;22291;52.250;21.228;2022-10-16T08:20:46;100633.27;;;18.57;66.04
36254;BME280;22291;52.250;21.228;2022-10-16T08:23:13;100627.32;;;18.45;65.55
36254;BME280;22291;52.250;21.228;2022-10-16T08:25:40;100622.63;;;18.45;66.20
36254;BME280;22291;52.250;21.228;2022-10-16T08:28:09;100624.52;;;18.67;66.23
36254;BME280;22291;52.250;21.228;2022-10-16T08:30:36;100632.25;;;18.87;65.19
36254;BME280;22291;52.250;21.228;2022-10-16T08:33:03;100639.89;;;18.88;64.36
36254;BME280;22291;52.250;21.228;2022-10-16T08:35:30;100647.92;;;18.80;63.97
36254;BME280;22291;52.250;21.228;2022-10-16T08:37:58;100643.27;;;18.65;63.55
36254;BME280;22291;52.250;21.228;2022-10-16T08:40:28;100643.36;;;18.53;64.26
36254;BME280;22291;52.250;21.228;2022-10-16T08:51:27;100653.92;;;18.44;64.24
36254;BME280;22291;52.250;21.228;2022-10-16T08:53:56;100653.57;;;18.46;64.69
36254;BME280;22291;52.250;21.228;2022-10-16T08:56:25;100653.34;;;18.45;64.29
36254;BME280;22291;52.250;21.228;2022-10-16T08:58:53;100664.03;;;18.34;64.24
36254;BME280;22291;52.250;21.228;2022-10-16T09:01:22;100661.91;;;18.27;63.97
36254;BME280;22291;52.250;21.228;2022-10-16T09:03:53;100663.97;;;18.24;64.73
36254;BME280;22291;52.250;21.228;2022-10-16T09:12:10;100669.85;;;18.48;64.50
36254;BME280;22291;52.250;21.228;2022-10-16T09:23:27;100675.27;;;19.38;62.77
36254;BME280;22291;52.250;21.228;2022-10-16T09:25:57;100676.78;;;19.45;63.03
36254;BME280;22291;52.250;21.228;2022-10-16T09:28:24;100675.98;;;19.54;63.04
36254;BME280;22291;52.250;21.228;2022-10-16T09:30:51;100674.42;;;19.92;62.62
36254;BME280;22291;52.250;21.228;2022-10-16T09:33:20;100659.12;;;20.38;62.93
36254;BME280;22291;52.250;21.228;2022-10-16T09:35:50;100657.98;;;20.75;61.31
36254;BME280;22291;52.250;21.228;2022-10-16T09:38:30;100655.39;;;20.99;60.12
36254;BME280;22291;52.250;21.228;2022-10-16T09:41:01;100649.36;;;21.17;60.25
36254;BME280;22291;52.250;21.228;2022-10-16T09:43:41;100650.95;;;21.48;58.88
36254;BME280;22291;52.250;21.228;2022-10-16T09:46:22;100659.14;;;21.44;57.57
36254;BME280;22291;52.250;21.228;2022-10-16T09:48:59;100655.67;;;21.34;58.86
36254;BME280;22291;52.250;21.228;2022-10-16T09:51:32;100655.05;;;21.61;58.80
36254;BME280;22291;52.250;21.228;2022-10-16T09:54:12;100654.05;;;21.77;58.91
36254;BME280;22291;52.250;21.228;2022-10-16T09:56:37;100655.45;;;21.80;57.43
36254;BME280;22291;52.250;21.228;2022-10-16T09:59:15;100655.76;;;21.55;55.76
36254;BME280;22291;52.250;21.228;2022-10-16T10:04:15;100658.36;;;21.00;56.85
36254;BME280;22291;52.250;21.228;2022-10-16T10:06:48;100664.86;;;20.75;57.12
36254;BME280;22291;52.250;21.228;2022-10-16T10:09:34;100670.16;;;20.74;57.65
36254;BME280;22291;52.250;21.228;2022-10-16T10:12:05;100664.02;;;20.71;57.85
36254;BME280;22291;52.250;21.228;2022-10-16T10:14:39;100648.69;;;20.97;58.35
36254;BME280;22291;52.250;21.228;2022-10-16T10:17:17;100649.80;;;21.36;58.84
36254;BME280;22291;52.250;21.228;2022-10-16T10:27:38;100655.72;;;22.06;56.04
36254;BME280;22291;52.250;21.228;2022-10-16T10:35:22;100659.59;;;21.63;56.07
36254;BME280;22291;52.250;21.228;2022-10-16T10:43:18;100632.29;;;20.90;56.67
36254;BME280;22291;52.250;21.228;2022-10-16T10:45:54;100634.63;;;20.88;57.48
36254;BME280;22291;52.250;21.228;2022-10-16T10:48:47;100633.56;;;20.83;57.60
36254;BME280;22291;52.250;21.228;2022-10-16T10:54:41;100627.11;;;20.72;58.36
36254;BME280;22291;52.250;21.228;2022-10-16T11:05:31;100637.37;;;20.39;58.84
36254;BME280;22291;52.250;21.228;2022-10-16T11:08:04;100643.96;;;20.34;59.15
36254;BME280;22291;52.250;21.228;2022-10-16T11:10:58;100638.38;;;20.40;59.97
36254;BME280;22291;52.250;21.228;2022-10-16T11:13:37;100634.53;;;20.58;60.17
36254;BME280;22291;52.250;21.228;2022-10-16T11:35:25;100638.69;;;21.12;58.74
36254;BME280;22291;52.250;21.228;2022-10-16T11:38:02;100635.67;;;20.94;58.37
36254;BME280;22291;52.250;21.228;2022-10-16T11:40:33;100641.63;;;20.82;58.46
36254;BME280;22291;52.250;21.228;2022-10-16T11:43:21;100634.20;;;20.73;58.69
36254;BME280;22291;52.250;21.228;2022-10-16T11:45:52;100634.47;;;20.64;58.57
36254;BME280;22291;52.250;21.228;2022-10-16T11:51:26;100637.66;;;20.43;59.11
36254;BME280;22291;52.250;21.228;2022-10-16T11:56:48;100630.77;;;20.66;60.26
36254;BME280;22291;52.250;21.228;2022-10-16T11:59:25;100637.00;;;20.77;59.49
36254;BME280;22291;52.250;21.228;2022-10-16T12:05:18;100626.33;;;20.85;58.66
36254;BME280;22291;52.250;21.228;2022-10-16T12:08:12;100622.47;;;21.03;59.12
36254;BME280;22291;52.250;21.228;2022-10-16T12:10:44;100623.34;;;21.11;58.66
36254;BME280;22291;52.250;21.228;2022-10-16T12:13:35;100620.63;;;21.14;58.73
36254;BME280;22291;52.250;21.228;2022-10-16T12:18:43;100619.59;;;20.96;58.55
36254;BME280;22291;52.250;21.228;2022-10-16T12:21:12;100620.83;;;20.98;58.72
36254;BME280;22291;52.250;21.228;2022-10-16T12:23:53;100630.36;;;20.91;57.97
36254;BME280;22291;52.250;21.228;2022-10-16T12:26:32;100644.09;;;20.78;58.31
36254;BME280;22291;52.250;21.228;2022-10-16T12:32:00;100632.36;;;20.67;58.68
36254;BME280;22291;52.250;21.228;2022-10-16T12:34:42;100641.81;;;20.70;59.35
36254;BME280;22291;52.250;21.228;2022-10-16T12:37:24;100644.00;;;20.70;59.27
36254;BME280;22291;52.250;21.228;2022-10-16T12:39:56;100650.05;;;20.70;59.10
36254;BME280;22291;52.250;21.228;2022-10-16T12:44:57;100642.89;;;20.52;58.48
36254;BME280;22291;52.250;21.228;2022-10-16T12:50:22;100643.06;;;20.26;58.68
36254;BME280;22291;52.250;21.228;2022-10-16T12:52:57;100645.66;;;20.19;59.32
36254;BME280;22291;52.250;21.228;2022-10-16T12:55:22;100647.03;;;20.19;59.60
36254;BME280;22291;52.250;21.228;2022-10-16T12:58:15;100657.47;;;20.20;59.61
36254;BME280;22291;52.250;21.228;2022-10-16T13:00:53;100664.83;;;20.15;59.57
36254;BME280;22291;52.250;21.228;2022-10-16T13:09:27;100663.97;;;19.78;59.98
36254;BME280;22291;52.250;21.228;2022-10-16T13:12:07;100659.95;;;19.66;60.37
36254;BME280;22291;52.250;21.228;2022-10-16T13:15:06;100665.01;;;19.54;60.91
36254;BME280;22291;52.250;21.228;2022-10-16T13:20:33;100662.85;;;19.34;61.50
36254;BME280;22291;52.250;21.228;2022-10-16T13:23:15;100653.23;;;19.25;61.81
36254;BME280;22291;52.250;21.228;2022-10-16T13:29:01;100657.98;;;19.18;62.44
36254;BME280;22291;52.250;21.228;2022-10-16T13:31:28;100673.02;;;19.24;62.70
36254;BME280;22291;52.250;21.228;2022-10-16T13:33:58;100669.46;;;19.23;62.70
36254;BME280;22291;52.250;21.228;2022-10-16T13:36:35;100669.46;;;19.23;62.75
36254;BME280;22291;52.250;21.228;2022-10-16T13:39:13;100670.05;;;19.23;62.64
36254;BME280;22291;52.250;21.228;2022-10-16T13:41:43;100677.26;;;19.21;62.82
36254;BME280;22291;52.250;21.228;2022-10-16T13:44:18;100681.42;;;19.15;62.87
36254;BME280;22291;52.250;21.228;2022-10-16T13:46:46;100684.67;;;19.11;62.75
36254;BME280;22291;52.250;21.228;2022-10-16T13:49:17;100674.21;;;19.07;62.94
36254;BME280;22291;52.250;21.228;2022-10-16T13:51:59;100681.55;;;19.03;63.07
36254;BME280;22291;52.250;21.228;2022-10-16T13:54:27;100690.83;;;18.98;63.16
36254;BME280;22291;52.250;21.228;2022-10-16T13:57:04;100683.81;;;18.91;63.44
36254;BME280;22291;52.250;21.228;2022-10-16T13:59:33;100694.11;;;18.88;63.59
36254;BME280;22291;52.250;21.228;2022-10-16T14:02:05;100697.13;;;18.83;63.96
36254;BME280;22291;52.250;21.228;2022-10-16T14:04:39;100700.11;;;18.78;63.92
36254;BME280;22291;52.250;21.228;2022-10-16T14:07:12;100694.55;;;18.74;64.10
36254;BME280;22291;52.250;21.228;2022-10-16T14:09:38;100691.72;;;18.71;64.35
36254;BME280;22291;52.250;21.228;2022-10-16T14:12:08;100684.79;;;18.67;64.45
36254;BME280;22291;52.250;21.228;2022-10-16T14:14:47;100681.03;;;18.65;64.56
36254;BME280;22291;52.250;21.228;2022-10-16T14:17:27;100679.45;;;18.64;64.76
36254;BME280;22291;52.250;21.228;2022-10-16T14:19:58;100685.29;;;18.63;65.03
36254;BME280;22291;52.250;21.228;2022-10-16T14:28:20;100686.86;;;18.64;65.30
36254;BME280;22291;52.250;21.228;2022-10-16T14:30:55;100685.14;;;18.65;65.65
36254;BME280;22291;52.250;21.228;2022-10-16T14:33:32;100698.05;;;18.65;65.78
36254;BME280;22291;52.250;21.228;2022-10-16T14:38:41;100708.92;;;18.61;65.95
36254;BME280;22291;52.250;21.228;2022-10-16T14:41:09;100704.58;;;18.60;66.03
36254;BME280;22291;52.250;21.228;2022-10-16T14:43:38;100704.14;;;18.58;66.13
36254;BME280;22291;52.250;21.228;2022-10-16T14:46:17;100708.84;;;18.58;66.08
36254;BME280;22291;52.250;21.228;2022-10-16T14:48:50;100718.20;;;18.57;66.18
36254;BME280;22291;52.250;21.228;2022-10-16T14:51:18;100713.06;;;18.55;66.19
36254;BME280;22291;52.250;21.228;2022-10-16T14:53:46;100708.75;;;18.54;66.31
36254;BME280;22291;52.250;21.228;2022-10-16T14:56:18;100711.02;;;18.52;66.57
36254;BME280;22291;52.250;21.228;2022-10-16T14:58:48;100708.87;;;18.52;66.87
36254;BME280;22291;52.250;21.228;2022-10-16T15:01:16;100708.20;;;18.48;66.65
36254;BME280;22291;52.250;21.228;2022-10-16T15:03:42;100711.29;;;18.47;66.82
36254;BME280;22291;52.250;21.228;2022-10-16T15:06:16;100719.50;;;18.47;66.97
36254;BME280;22291;52.250;21.228;2022-10-16T15:08:42;100715.31;;;18.43;66.97
36254;BME280;22291;52.250;21.228;2022-10-16T15:11:18;100712.80;;;18.44;67.07
36254;BME280;22291;52.250;21.228;2022-10-16T15:13:43;100717.61;;;18.41;67.04